Terminal Aerodrome Forecast
Issued by NWS Caribou, ME

Home | Current Version | Previous Version | Text Only | Print | Product List | Glossary On
Versions: 1 2 3 4 5 6 7 8 9 10 11 12 13
323
FTUS41 KCAR 251721
TAFCAR
TAF
KCAR 251721Z 2518/2618 18006KT P6SM BKN200
     FM260130 16004KT 6SM SHRA OVC050
     FM260300 15005KT 4SM -SHRA BR OVC025
     FM260700 18005KT 4SM BR OVC007
     FM261200 25005KT P6SM VCSH BKN025
     FM261600 26005KT P6SM VCSH BKN040=

USA.gov is the U.S. government's official web portal to all federal, state and local government web resources and services.